sensor_id;sensor_type;location;lat;lon;timestamp;P1;durP1;ratioP1;P2;durP2;ratioP2
69053;SDS011;56125;52.242;4.756;2022-12-05T00:02:05;12.15;;;6.13;;
69053;SDS011;56125;52.242;4.756;2022-12-05T00:07:07;8.88;;;5.15;;
69053;SDS011;56125;52.242;4.756;2022-12-05T00:12:08;8.27;;;5.25;;
69053;SDS011;56125;52.242;4.756;2022-12-05T00:17:09;8.73;;;5.25;;
69053;SDS011;56125;52.242;4.756;2022-12-05T00:22:10;9.23;;;5.38;;
69053;SDS011;56125;52.242;4.756;2022-12-05T00:27:12;9.35;;;5.47;;
69053;SDS011;56125;52.242;4.756;2022-12-05T00:32:13;8.15;;;4.88;;
69053;SDS011;56125;52.242;4.756;2022-12-05T00:37:14;7.97;;;5.30;;
69053;SDS011;56125;52.242;4.756;2022-12-05T00:42:15;8.23;;;4.80;;
69053;SDS011;56125;52.242;4.756;2022-12-05T00:47:16;8.30;;;5.25;;
69053;SDS011;56125;52.242;4.756;2022-12-05T00:52:17;8.40;;;5.10;;
69053;SDS011;56125;52.242;4.756;2022-12-05T00:57:18;8.10;;;5.05;;
69053;SDS011;56125;52.242;4.756;2022-12-05T01:02:19;7.43;;;4.65;;
69053;SDS011;56125;52.242;4.756;2022-12-05T01:07:20;9.85;;;5.35;;
69053;SDS011;56125;52.242;4.756;2022-12-05T01:12:21;12.57;;;6.55;;
69053;SDS011;56125;52.242;4.756;2022-12-05T01:17:22;14.25;;;6.28;;
69053;SDS011;56125;52.242;4.756;2022-12-05T01:22:23;7.90;;;5.15;;
69053;SDS011;56125;52.242;4.756;2022-12-05T01:27:24;9.13;;;5.43;;
69053;SDS011;56125;52.242;4.756;2022-12-05T01:32:25;8.65;;;5.22;;
69053;SDS011;56125;52.242;4.756;2022-12-05T01:37:26;9.25;;;5.32;;
69053;SDS011;56125;52.242;4.756;2022-12-05T01:42:27;9.55;;;4.95;;
69053;SDS011;56125;52.242;4.756;2022-12-05T01:47:29;10.02;;;5.35;;
69053;SDS011;56125;52.242;4.756;2022-12-05T01:52:32;8.70;;;5.28;;
69053;SDS011;56125;52.242;4.756;2022-12-05T01:57:33;9.05;;;5.05;;
69053;SDS011;56125;52.242;4.756;2022-12-05T02:02:35;11.02;;;5.45;;
69053;SDS011;56125;52.242;4.756;2022-12-05T02:07:37;8.95;;;5.53;;
69053;SDS011;56125;52.242;4.756;2022-12-05T02:12:40;9.55;;;5.47;;
69053;SDS011;56125;52.242;4.756;2022-12-05T02:33:52;8.88;;;4.47;;
69053;SDS011;56125;52.242;4.756;2022-12-05T02:39:32;7.35;;;4.55;;
69053;SDS011;56125;52.242;4.756;2022-12-05T02:44:48;7.93;;;5.00;;
69053;SDS011;56125;52.242;4.756;2022-12-05T02:49:53;9.32;;;4.95;;
69053;SDS011;56125;52.242;4.756;2022-12-05T02:54:56;8.70;;;4.50;;
69053;SDS011;56125;52.242;4.756;2022-12-05T02:59:59;8.10;;;4.55;;
69053;SDS011;56125;52.242;4.756;2022-12-05T03:05:20;7.03;;;4.05;;
69053;SDS011;56125;52.242;4.756;2022-12-05T03:10:29;8.85;;;4.85;;
69053;SDS011;56125;52.242;4.756;2022-12-05T03:15:33;7.35;;;4.25;;
69053;SDS011;56125;52.242;4.756;2022-12-05T03:20:42;7.97;;;4.60;;
69053;SDS011;56125;52.242;4.756;2022-12-05T03:25:53;8.27;;;4.28;;
69053;SDS011;56125;52.242;4.756;2022-12-05T03:31:18;8.63;;;4.43;;
69053;SDS011;56125;52.242;4.756;2022-12-05T03:37:00;7.85;;;4.30;;
69053;SDS011;56125;52.242;4.756;2022-12-05T03:41:56;8.20;;;4.68;;
69053;SDS011;56125;52.242;4.756;2022-12-05T03:52:37;9.02;;;4.60;;
69053;SDS011;56125;52.242;4.756;2022-12-05T03:57:46;8.50;;;4.90;;
69053;SDS011;56125;52.242;4.756;2022-12-05T04:07:57;9.18;;;4.90;;
69053;SDS011;56125;52.242;4.756;2022-12-05T04:13:29;9.45;;;5.07;;
69053;SDS011;56125;52.242;4.756;2022-12-05T04:18:40;8.00;;;4.63;;
69053;SDS011;56125;52.242;4.756;2022-12-05T04:23:45;9.00;;;4.93;;
69053;SDS011;56125;52.242;4.756;2022-12-05T04:29:08;7.28;;;4.00;;
69053;SDS011;56125;52.242;4.756;2022-12-05T04:34:18;10.15;;;5.13;;
69053;SDS011;56125;52.242;4.756;2022-12-05T04:39:23;6.35;;;3.70;;
69053;SDS011;56125;52.242;4.756;2022-12-05T04:44:29;7.85;;;4.15;;
69053;SDS011;56125;52.242;4.756;2022-12-05T04:49:34;9.52;;;5.22;;
69053;SDS011;56125;52.242;4.756;2022-12-05T04:54:39;9.38;;;5.63;;
69053;SDS011;56125;52.242;4.756;2022-12-05T04:59:45;9.40;;;4.95;;
69053;SDS011;56125;52.242;4.756;2022-12-05T05:04:48;8.77;;;4.47;;
69053;SDS011;56125;52.242;4.756;2022-12-05T05:09:51;8.32;;;4.50;;
69053;SDS011;56125;52.242;4.756;2022-12-05T05:14:52;11.38;;;6.10;;
69053;SDS011;56125;52.242;4.756;2022-12-05T05:19:53;7.38;;;4.45;;
69053;SDS011;56125;52.242;4.756;2022-12-05T05:25:14;8.35;;;4.30;;
69053;SDS011;56125;52.242;4.756;2022-12-05T05:30:16;9.55;;;4.75;;
69053;SDS011;56125;52.242;4.756;2022-12-05T05:35:18;7.55;;;4.70;;
69053;SDS011;56125;52.242;4.756;2022-12-05T05:40:19;10.02;;;5.25;;
69053;SDS011;56125;52.242;4.756;2022-12-05T05:45:20;6.88;;;3.88;;
69053;SDS011;56125;52.242;4.756;2022-12-05T05:50:21;9.13;;;4.55;;
69053;SDS011;56125;52.242;4.756;2022-12-05T05:55:22;6.93;;;4.20;;
69053;SDS011;56125;52.242;4.756;2022-12-05T06:00:23;7.93;;;3.95;;
69053;SDS011;56125;52.242;4.756;2022-12-05T06:05:24;6.13;;;3.80;;
69053;SDS011;56125;52.242;4.756;2022-12-05T06:10:25;6.97;;;4.20;;
69053;SDS011;56125;52.242;4.756;2022-12-05T06:15:26;6.97;;;4.13;;
69053;SDS011;56125;52.242;4.756;2022-12-05T06:20:28;7.32;;;3.95;;
69053;SDS011;56125;52.242;4.756;2022-12-05T06:25:29;6.87;;;3.67;;
69053;SDS011;56125;52.242;4.756;2022-12-05T06:30:30;9.73;;;4.78;;
69053;SDS011;56125;52.242;4.756;2022-12-05T06:35:33;11.93;;;4.63;;
69053;SDS011;56125;52.242;4.756;2022-12-05T06:40:34;14.27;;;5.07;;
69053;SDS011;56125;52.242;4.756;2022-12-05T06:45:38;13.50;;;4.80;;
69053;SDS011;56125;52.242;4.756;2022-12-05T06:50:46;17.23;;;4.60;;
69053;SDS011;56125;52.242;4.756;2022-12-05T06:55:55;15.93;;;4.93;;
69053;SDS011;56125;52.242;4.756;2022-12-05T07:00:57;12.18;;;4.50;;
69053;SDS011;56125;52.242;4.756;2022-12-05T07:06:16;13.40;;;4.10;;
69053;SDS011;56125;52.242;4.756;2022-12-05T07:11:17;10.15;;;3.95;;
69053;SDS011;56125;52.242;4.756;2022-12-05T07:16:19;10.30;;;3.80;;
69053;SDS011;56125;52.242;4.756;2022-12-05T07:21:20;10.45;;;4.03;;
69053;SDS011;56125;52.242;4.756;2022-12-05T07:26:22;12.47;;;4.10;;
69053;SDS011;56125;52.242;4.756;2022-12-05T07:31:24;8.13;;;3.35;;
69053;SDS011;56125;52.242;4.756;2022-12-05T07:36:25;9.00;;;3.30;;
69053;SDS011;56125;52.242;4.756;2022-12-05T07:41:27;11.10;;;3.60;;
69053;SDS011;56125;52.242;4.756;2022-12-05T07:46:30;8.73;;;3.30;;
69053;SDS011;56125;52.242;4.756;2022-12-05T07:51:31;7.72;;;3.22;;
69053;SDS011;56125;52.242;4.756;2022-12-05T07:56:33;7.17;;;3.00;;
69053;SDS011;56125;52.242;4.756;2022-12-05T08:01:34;10.27;;;3.22;;
69053;SDS011;56125;52.242;4.756;2022-12-05T08:06:36;6.50;;;2.97;;
69053;SDS011;56125;52.242;4.756;2022-12-05T08:11:37;14.27;;;2.92;;
69053;SDS011;56125;52.242;4.756;2022-12-05T08:16:38;6.43;;;2.80;;
69053;SDS011;56125;52.242;4.756;2022-12-05T08:21:39;5.93;;;2.50;;
69053;SDS011;56125;52.242;4.756;2022-12-05T08:26:40;6.30;;;2.60;;
69053;SDS011;56125;52.242;4.756;2022-12-05T08:31:42;5.78;;;2.20;;
69053;SDS011;56125;52.242;4.756;2022-12-05T08:36:49;8.23;;;2.70;;
69053;SDS011;56125;52.242;4.756;2022-12-05T08:41:50;4.25;;;2.40;;
69053;SDS011;56125;52.242;4.756;2022-12-05T08:46:51;4.97;;;2.20;;
69053;SDS011;56125;52.242;4.756;2022-12-05T08:51:52;5.00;;;2.20;;
69053;SDS011;56125;52.242;4.756;2022-12-05T08:56:53;4.43;;;1.97;;
69053;SDS011;56125;52.242;4.756;2022-12-05T09:01:54;5.15;;;1.80;;
69053;SDS011;56125;52.242;4.756;2022-12-05T09:06:55;3.27;;;1.70;;
69053;SDS011;56125;52.242;4.756;2022-12-05T09:11:56;4.15;;;1.60;;
69053;SDS011;56125;52.242;4.756;2022-12-05T09:16:58;2.47;;;1.57;;
69053;SDS011;56125;52.242;4.756;2022-12-05T09:22:00;2.90;;;1.90;;
69053;SDS011;56125;52.242;4.756;2022-12-05T09:27:01;2.97;;;1.70;;
69053;SDS011;56125;52.242;4.756;2022-12-05T09:32:02;2.47;;;1.63;;
69053;SDS011;56125;52.242;4.756;2022-12-05T09:37:03;3.20;;;1.80;;
69053;SDS011;56125;52.242;4.756;2022-12-05T09:42:23;3.05;;;1.60;;
69053;SDS011;56125;52.242;4.756;2022-12-05T09:47:34;2.73;;;1.73;;
69053;SDS011;56125;52.242;4.756;2022-12-05T10:03:42;2.08;;;1.45;;
69053;SDS011;56125;52.242;4.756;2022-12-05T10:09:12;1.70;;;1.13;;
69053;SDS011;56125;52.242;4.756;2022-12-05T10:20:04;2.07;;;1.37;;
69053;SDS011;56125;52.242;4.756;2022-12-05T10:25:21;3.35;;;1.30;;
69053;SDS011;56125;52.242;4.756;2022-12-05T10:30:28;2.63;;;1.23;;
69053;SDS011;56125;52.242;4.756;2022-12-05T10:35:35;2.50;;;1.30;;
69053;SDS011;56125;52.242;4.756;2022-12-05T10:40:39;2.57;;;1.30;;
69053;SDS011;56125;52.242;4.756;2022-12-05T10:45:45;2.03;;;1.13;;
69053;SDS011;56125;52.242;4.756;2022-12-05T10:50:51;1.23;;;1.10;;
69053;SDS011;56125;52.242;4.756;2022-12-05T10:55:54;1.70;;;1.10;;
69053;SDS011;56125;52.242;4.756;2022-12-05T11:00:56;1.77;;;1.20;;
69053;SDS011;56125;52.242;4.756;2022-12-05T11:06:14;2.78;;;1.30;;
69053;SDS011;56125;52.242;4.756;2022-12-05T11:11:27;1.77;;;1.07;;
69053;SDS011;56125;52.242;4.756;2022-12-05T11:16:31;2.75;;;1.40;;
69053;SDS011;56125;52.242;4.756;2022-12-05T11:21:40;1.73;;;1.20;;
69053;SDS011;56125;52.242;4.756;2022-12-05T11:26:42;2.10;;;0.98;;
69053;SDS011;56125;52.242;4.756;2022-12-05T11:31:49;1.77;;;1.10;;
69053;SDS011;56125;52.242;4.756;2022-12-05T11:36:55;2.45;;;1.20;;
69053;SDS011;56125;52.242;4.756;2022-12-05T11:53:00;2.70;;;1.60;;
69053;SDS011;56125;52.242;4.756;2022-12-05T12:03:53;1.63;;;1.13;;
69053;SDS011;56125;52.242;4.756;2022-12-05T12:14:25;3.20;;;1.20;;
69053;SDS011;56125;52.242;4.756;2022-12-05T12:19:53;2.22;;;1.25;;
69053;SDS011;56125;52.242;4.756;2022-12-05T12:25:29;2.20;;;1.53;;
69053;SDS011;56125;52.242;4.756;2022-12-05T12:31:04;1.92;;;1.33;;
69053;SDS011;56125;52.242;4.756;2022-12-05T12:36:13;1.90;;;1.20;;
69053;SDS011;56125;52.242;4.756;2022-12-05T12:41:34;1.77;;;1.20;;
69053;SDS011;56125;52.242;4.756;2022-12-05T12:52:31;2.58;;;1.38;;
69053;SDS011;56125;52.242;4.756;2022-12-05T12:57:59;2.37;;;1.17;;
69053;SDS011;56125;52.242;4.756;2022-12-05T13:03:16;3.42;;;1.67;;
69053;SDS011;56125;52.242;4.756;2022-12-05T13:13:30;2.00;;;1.27;;
69053;SDS011;56125;52.242;4.756;2022-12-05T13:18:35;2.00;;;1.40;;
69053;SDS011;56125;52.242;4.756;2022-12-05T13:23:42;2.70;;;1.38;;
69053;SDS011;56125;52.242;4.756;2022-12-05T13:28:53;2.57;;;1.30;;
69053;SDS011;56125;52.242;4.756;2022-12-05T13:33:57;2.28;;;1.40;;
69053;SDS011;56125;52.242;4.756;2022-12-05T13:44:34;1.98;;;1.50;;
69053;SDS011;56125;52.242;4.756;2022-12-05T13:49:45;3.07;;;1.50;;
69053;SDS011;56125;52.242;4.756;2022-12-05T13:55:00;2.45;;;1.52;;
69053;SDS011;56125;52.242;4.756;2022-12-05T14:05:31;2.40;;;1.48;;
69053;SDS011;56125;52.242;4.756;2022-12-05T14:15:39;2.72;;;1.55;;
69053;SDS011;56125;52.242;4.756;2022-12-05T14:21:07;2.30;;;1.57;;
69053;SDS011;56125;52.242;4.756;2022-12-05T14:36:50;2.20;;;1.50;;
69053;SDS011;56125;52.242;4.756;2022-12-05T14:42:04;2.40;;;1.43;;
69053;SDS011;56125;52.242;4.756;2022-12-05T14:47:20;1.90;;;1.40;;
69053;SDS011;56125;52.242;4.756;2022-12-05T14:52:25;3.60;;;1.50;;
69053;SDS011;56125;52.242;4.756;2022-12-05T14:57:28;2.00;;;1.50;;
69053;SDS011;56125;52.242;4.756;2022-12-05T15:02:32;2.33;;;1.43;;
69053;SDS011;56125;52.242;4.756;2022-12-05T15:07:38;2.60;;;1.80;;
69053;SDS011;56125;52.242;4.756;2022-12-05T15:12:45;1.83;;;1.33;;
69053;SDS011;56125;52.242;4.756;2022-12-05T15:17:50;3.35;;;1.50;;
69053;SDS011;56125;52.242;4.756;2022-12-05T15:22:54;2.00;;;1.60;;
69053;SDS011;56125;52.242;4.756;2022-12-05T15:28:05;2.63;;;1.52;;
69053;SDS011;56125;52.242;4.756;2022-12-05T15:33:19;3.17;;;1.47;;
69053;SDS011;56125;52.242;4.756;2022-12-05T15:38:22;1.85;;;1.17;;
69053;SDS011;56125;52.242;4.756;2022-12-05T15:43:31;1.90;;;1.20;;
69053;SDS011;56125;52.242;4.756;2022-12-05T15:48:33;2.60;;;1.50;;
69053;SDS011;56125;52.242;4.756;2022-12-05T15:53:36;1.50;;;1.10;;
69053;SDS011;56125;52.242;4.756;2022-12-05T16:09:16;1.83;;;1.20;;
69053;SDS011;56125;52.242;4.756;2022-12-05T16:14:19;2.73;;;1.10;;
69053;SDS011;56125;52.242;4.756;2022-12-05T16:19:22;1.77;;;1.17;;
69053;SDS011;56125;52.242;4.756;2022-12-05T16:24:28;2.70;;;1.30;;
69053;SDS011;56125;52.242;4.756;2022-12-05T16:29:31;1.42;;;1.10;;
69053;SDS011;56125;52.242;4.756;2022-12-05T16:34:34;2.07;;;1.20;;
69053;SDS011;56125;52.242;4.756;2022-12-05T16:39:35;3.22;;;1.20;;
69053;SDS011;56125;52.242;4.756;2022-12-05T16:44:52;1.73;;;1.10;;
69053;SDS011;56125;52.242;4.756;2022-12-05T16:50:18;1.70;;;1.17;;
69053;SDS011;56125;52.242;4.756;2022-12-05T16:55:39;1.93;;;1.20;;
69053;SDS011;56125;52.242;4.756;2022-12-05T17:00:42;1.83;;;1.13;;
69053;SDS011;56125;52.242;4.756;2022-12-05T17:05:43;1.80;;;1.20;;
69053;SDS011;56125;52.242;4.756;2022-12-05T17:10:44;2.00;;;1.17;;
69053;SDS011;56125;52.242;4.756;2022-12-05T17:15:45;2.17;;;0.93;;
69053;SDS011;56125;52.242;4.756;2022-12-05T17:20:47;1.40;;;1.02;;
69053;SDS011;56125;52.242;4.756;2022-12-05T17:25:53;1.40;;;0.87;;
69053;SDS011;56125;52.242;4.756;2022-12-05T17:30:55;1.98;;;1.10;;
69053;SDS011;56125;52.242;4.756;2022-12-05T17:35:56;1.60;;;0.87;;
69053;SDS011;56125;52.242;4.756;2022-12-05T17:40:57;3.70;;;1.17;;
69053;SDS011;56125;52.242;4.756;2022-12-05T17:45:59;1.53;;;0.90;;
69053;SDS011;56125;52.242;4.756;2022-12-05T17:51:00;2.15;;;1.10;;
69053;SDS011;56125;52.242;4.756;2022-12-05T17:56:04;2.37;;;1.20;;
69053;SDS011;56125;52.242;4.756;2022-12-05T18:01:05;2.63;;;1.08;;
69053;SDS011;56125;52.242;4.756;2022-12-05T18:06:09;2.53;;;1.20;;
69053;SDS011;56125;52.242;4.756;2022-12-05T18:11:11;2.13;;;1.10;;
69053;SDS011;56125;52.242;4.756;2022-12-05T18:16:13;1.80;;;1.10;;
69053;SDS011;56125;52.242;4.756;2022-12-05T18:21:14;1.55;;;1.08;;
69053;SDS011;56125;52.242;4.756;2022-12-05T18:26:15;1.63;;;1.20;;
69053;SDS011;56125;52.242;4.756;2022-12-05T18:31:16;1.88;;;1.20;;
69053;SDS011;56125;52.242;4.756;2022-12-05T18:36:18;1.77;;;1.20;;
69053;SDS011;56125;52.242;4.756;2022-12-05T18:41:20;2.30;;;1.25;;
69053;SDS011;56125;52.242;4.756;2022-12-05T18:46:23;1.87;;;1.10;;
69053;SDS011;56125;52.242;4.756;2022-12-05T18:51:24;1.60;;;1.08;;
69053;SDS011;56125;52.242;4.756;2022-12-05T18:56:26;2.43;;;1.00;;
69053;SDS011;56125;52.242;4.756;2022-12-05T19:01:30;2.30;;;1.00;;
69053;SDS011;56125;52.242;4.756;2022-12-05T19:06:33;2.37;;;1.30;;
69053;SDS011;56125;52.242;4.756;2022-12-05T19:11:36;1.38;;;1.15;;
69053;SDS011;56125;52.242;4.756;2022-12-05T19:16:39;3.67;;;1.10;;
69053;SDS011;56125;52.242;4.756;2022-12-05T19:21:40;1.60;;;1.33;;
69053;SDS011;56125;52.242;4.756;2022-12-05T19:26:42;5.67;;;2.20;;
69053;SDS011;56125;52.242;4.756;2022-12-05T19:31:43;3.03;;;1.38;;
69053;SDS011;56125;52.242;4.756;2022-12-05T19:36:45;2.80;;;1.43;;
69053;SDS011;56125;52.242;4.756;2022-12-05T19:41:46;3.25;;;1.40;;
69053;SDS011;56125;52.242;4.756;2022-12-05T19:46:47;2.27;;;1.50;;
69053;SDS011;56125;52.242;4.756;2022-12-05T19:51:49;3.05;;;1.70;;
69053;SDS011;56125;52.242;4.756;2022-12-05T19:56:50;2.07;;;1.50;;
69053;SDS011;56125;52.242;4.756;2022-12-05T20:01:52;3.10;;;1.58;;
69053;SDS011;56125;52.242;4.756;2022-12-05T20:06:59;5.07;;;1.47;;
69053;SDS011;56125;52.242;4.756;2022-12-05T20:12:00;2.60;;;1.40;;
69053;SDS011;56125;52.242;4.756;2022-12-05T20:17:03;2.90;;;1.37;;
69053;SDS011;56125;52.242;4.756;2022-12-05T20:22:04;1.80;;;1.35;;
69053;SDS011;56125;52.242;4.756;2022-12-05T20:27:05;1.63;;;1.30;;
69053;SDS011;56125;52.242;4.756;2022-12-05T20:32:06;2.72;;;1.40;;
69053;SDS011;56125;52.242;4.756;2022-12-05T20:37:08;1.53;;;1.13;;
69053;SDS011;56125;52.242;4.756;2022-12-05T20:42:10;2.22;;;1.48;;
69053;SDS011;56125;52.242;4.756;2022-12-05T20:47:11;3.50;;;1.50;;
69053;SDS011;56125;52.242;4.756;2022-12-05T20:52:12;3.28;;;1.42;;
69053;SDS011;56125;52.242;4.756;2022-12-05T20:57:13;3.90;;;1.47;;
69053;SDS011;56125;52.242;4.756;2022-12-05T21:02:14;2.50;;;1.40;;
69053;SDS011;56125;52.242;4.756;2022-12-05T21:07:15;3.80;;;1.53;;
69053;SDS011;56125;52.242;4.756;2022-12-05T21:12:16;2.75;;;1.60;;
69053;SDS011;56125;52.242;4.756;2022-12-05T21:17:17;4.97;;;1.80;;
69053;SDS011;56125;52.242;4.756;2022-12-05T21:22:18;3.40;;;1.52;;
69053;SDS011;56125;52.242;4.756;2022-12-05T21:27:19;2.43;;;1.50;;
69053;SDS011;56125;52.242;4.756;2022-12-05T21:32:20;3.22;;;1.65;;
69053;SDS011;56125;52.242;4.756;2022-12-05T21:37:21;2.30;;;1.50;;
69053;SDS011;56125;52.242;4.756;2022-12-05T21:42:22;3.60;;;1.50;;
69053;SDS011;56125;52.242;4.756;2022-12-05T21:47:23;3.43;;;1.60;;
69053;SDS011;56125;52.242;4.756;2022-12-05T21:52:26;3.15;;;1.75;;
69053;SDS011;56125;52.242;4.756;2022-12-05T21:57:28;2.20;;;1.60;;
69053;SDS011;56125;52.242;4.756;2022-12-05T22:02:31;2.72;;;1.70;;
69053;SDS011;56125;52.242;4.756;2022-12-05T22:07:32;2.53;;;1.63;;
69053;SDS011;56125;52.242;4.756;2022-12-05T22:12:33;3.22;;;1.58;;
69053;SDS011;56125;52.242;4.756;2022-12-05T22:17:34;4.47;;;1.90;;
69053;SDS011;56125;52.242;4.756;2022-12-05T22:22:35;4.30;;;1.90;;
69053;SDS011;56125;52.242;4.756;2022-12-05T22:27:36;2.83;;;1.60;;
69053;SDS011;56125;52.242;4.756;2022-12-05T22:32:37;3.65;;;1.58;;
69053;SDS011;56125;52.242;4.756;2022-12-05T22:37:38;4.20;;;1.80;;
69053;SDS011;56125;52.242;4.756;2022-12-05T22:42:39;4.53;;;1.67;;
69053;SDS011;56125;52.242;4.756;2022-12-05T22:47:40;3.07;;;1.77;;
69053;SDS011;56125;52.242;4.756;2022-12-05T22:52:41;3.15;;;1.80;;
69053;SDS011;56125;52.242;4.756;2022-12-05T22:57:42;5.90;;;1.50;;
69053;SDS011;56125;52.242;4.756;2022-12-05T23:02:43;3.38;;;1.52;;
69053;SDS011;56125;52.242;4.756;2022-12-05T23:07:44;3.77;;;1.70;;
69053;SDS011;56125;52.242;4.756;2022-12-05T23:12:45;2.88;;;1.70;;
69053;SDS011;56125;52.242;4.756;2022-12-05T23:17:47;2.40;;;1.33;;
69053;SDS011;56125;52.242;4.756;2022-12-05T23:22:48;2.20;;;1.40;;
69053;SDS011;56125;52.242;4.756;2022-12-05T23:27:49;4.30;;;1.50;;
69053;SDS011;56125;52.242;4.756;2022-12-05T23:32:50;3.03;;;1.70;;
69053;SDS011;56125;52.242;4.756;2022-12-05T23:37:51;3.57;;;1.40;;
69053;SDS011;56125;52.242;4.756;2022-12-05T23:42:53;4.47;;;1.70;;
69053;SDS011;56125;52.242;4.756;2022-12-05T23:47:54;3.67;;;1.70;;
69053;SDS011;56125;52.242;4.756;2022-12-05T23:52:55;3.42;;;1.60;;
69053;SDS011;56125;52.242;4.756;2022-12-05T23:57:56;4.37;;;1.43;;
